Time;durP1;ratioP1;P1;durP2;ratioP2;P2;SDS_P1;SDS_P2;PMS_P1;PMS_P2;Temp;Humidity;BMP_temperature;BMP_pressure;BME280_temperature;BME280_humidity;BME280_pressure;Samples;Min_cycle;Max_cycle;Signal;HPM_P1;HPM_P2
2023/01/19 00:01:24;;;;;;;1999.90;428.42;;;9.50;99.90;;;;;;4952659;28;20046;-82
2023/01/19 00:03:50;;;;;;;1999.90;653.88;;;9.30;99.90;;;;;;4952864;28;20126;-82
2023/01/19 00:06:16;;;;;;;1999.90;999.90;;;10.50;99.90;;;;;;4951226;28;20441;-83
2023/01/19 00:08:47;;;;;;;1999.90;999.90;;;9.10;99.90;;;;;;4950680;28;20043;-82
2023/01/19 00:11:13;;;;;;;1999.90;999.90;;;8.20;99.90;;;;;;4950325;29;20121;-82
2023/01/19 00:13:39;;;;;;;1999.90;660.08;;;9.30;99.90;;;;;;4951205;28;20481;-82
2023/01/19 00:16:06;;;;;;;1999.90;780.20;;;9.10;99.90;;;;;;4939733;28;20031;-82
2023/01/19 00:18:32;;;;;;;1999.90;999.90;;;9.40;99.90;;;;;;4947635;28;20050;-81
2023/01/19 00:20:58;;;;;;;1999.90;999.90;;;9.70;99.90;;;;;;4950995;28;20047;-81
2023/01/19 00:23:24;;;;;;;1999.90;999.90;;;6.60;99.90;;;;;;4951506;28;20055;-81
2023/01/19 00:25:50;;;;;;;1999.90;999.90;;;8.80;99.90;;;;;;4952788;28;20097;-81
2023/01/19 00:28:17;;;;;;;1999.90;999.90;;;9.60;99.90;;;;;;4944231;28;20050;-81
2023/01/19 00:30:44;;;;;;;1999.90;550.85;;;10.10;99.90;;;;;;4950323;28;20054;-82
2023/01/19 00:33:12;;;;;;;1999.90;394.52;;;;;;;;;;4935395;28;20846;-82
2023/01/19 00:35:38;;;;;;;1999.90;516.63;;;10.50;99.90;;;;;;4953560;28;20047;-83
2023/01/19 00:38:04;;;;;;;1941.97;608.03;;;;;;;;;;4953462;28;20051;-82
2023/01/19 00:40:30;;;;;;;1999.90;999.90;;;11.70;99.90;;;;;;4945766;28;20242;-82
2023/01/19 00:42:55;;;;;;;1999.90;455.85;;;10.50;99.90;;;;;;4937797;28;20043;-83
2023/01/19 00:45:23;;;;;;;1999.90;999.90;;;6.10;99.90;;;;;;4952028;28;20095;-83
2023/01/19 00:47:55;;;;;;;1999.90;999.90;;;9.70;99.90;;;;;;4953654;29;20047;-82
2023/01/19 00:50:22;;;;;;;1999.90;999.90;;;10.20;99.90;;;;;;4954292;28;20054;-82
2023/01/19 00:52:49;;;;;;;1999.90;999.90;;;;;;;;;;4952246;28;20499;-82
2023/01/19 00:55:15;;;;;;;1999.90;999.90;;;9.20;99.90;;;;;;4952977;28;20087;-82
2023/01/19 00:57:42;;;;;;;1999.90;718.63;;;9.30;99.90;;;;;;4942159;28;20059;-84
2023/01/19 01:00:10;;;;;;;1999.90;999.90;;;11.20;99.90;;;;;;4948537;28;20135;-86
2023/01/19 01:02:38;;;;;;;1999.90;566.75;;;9.00;99.90;;;;;;4953677;28;20047;-82
2023/01/19 01:05:05;;;;;;;1999.90;918.13;;;10.10;99.90;;;;;;4957030;28;20540;-83
2023/01/19 01:07:43;;;;;;;1999.90;999.90;;;10.30;99.90;;;;;;4958808;28;20078;-82
2023/01/19 01:10:17;;;;;;;1999.90;826.53;;;8.20;99.90;;;;;;4960334;29;20047;-83
2023/01/19 01:12:43;;;;;;;1999.90;974.65;;;10.40;99.90;;;;;;4943335;28;20102;-83
2023/01/19 01:15:10;;;;;;;1999.90;838.65;;;8.40;99.90;;;;;;4958142;28;20055;-86
2023/01/19 01:17:37;;;;;;;1999.90;999.90;;;8.70;99.90;;;;;;4959367;28;20047;-85
2023/01/19 01:20:03;;;;;;;1899.07;800.92;;;10.50;99.90;;;;;;4956190;28;20065;-86
2023/01/19 01:22:29;;;;;;;1999.90;999.90;;;10.30;99.90;;;;;;4931962;29;20047;-85
2023/01/19 01:24:56;;;;;;;1999.90;632.38;;;;;;;;;;4955047;28;20054;-84
2023/01/19 01:27:21;;;;;;;1999.90;767.22;;;8.60;99.90;;;;;;4917453;29;20051;-85
2023/01/19 01:29:47;;;;;;;1999.90;999.90;;;11.60;99.90;;;;;;4956411;28;20515;-84
2023/01/19 01:32:14;;;;;;;1999.90;940.22;;;8.70;99.90;;;;;;4952189;29;20061;-85
2023/01/19 01:34:39;;;;;;;1999.90;580.85;;;9.70;99.90;;;;;;4945480;28;20055;-86
2023/01/19 01:37:07;;;;;;;1999.90;861.88;;;6.80;99.90;;;;;;4955815;29;20066;-86
2023/01/19 01:39:36;;;;;;;1999.90;896.60;;;9.60;99.90;;;;;;4958310;28;20051;-85
2023/01/19 01:42:09;;;;;;;1999.90;703.05;;;7.80;99.90;;;;;;4954885;28;20047;-85
2023/01/19 01:44:51;;;;;;;1999.90;901.72;;;8.80;99.90;;;;;;4959655;28;20094;-86
2023/01/19 01:47:41;;;;;;;1999.90;822.95;;;8.50;99.90;;;;;;4948602;28;20050;-86
2023/01/19 01:50:12;;;;;;;1999.90;999.90;;;8.20;99.90;;;;;;4956241;28;20054;-88
2023/01/19 01:53:06;;;;;;;1999.90;884.95;;;8.50;99.90;;;;;;4958957;29;20058;-85
2023/01/19 01:55:37;;;;;;;1999.90;536.65;;;8.50;99.90;;;;;;4940421;29;20060;-86
2023/01/19 01:58:04;;;;;;;1999.90;957.92;;;9.10;99.90;;;;;;4953628;29;20502;-86
2023/01/19 02:03:15;;;;;;;1999.90;809.60;;;10.10;99.90;;;;;;4958602;29;20404;-85
2023/01/19 02:05:41;;;;;;;1999.90;727.67;;;;;;;;;;4942301;29;20047;-86
2023/01/19 02:14:03;;;;;;;1999.90;928.20;;;9.90;99.90;;;;;;4939981;29;20062;-85
2023/01/19 02:16:29;;;;;;;1999.90;689.78;;;;;;;;;;4937460;29;20043;-86
2023/01/19 02:18:56;;;;;;;1999.90;746.60;;;10.10;99.90;;;;;;4947943;29;20075;-86
2023/01/19 02:21:26;;;;;;;1999.90;690.45;;;11.90;99.90;;;;;;4936043;29;20485;-86
2023/01/19 02:23:53;;;;;;;1999.90;633.03;;;10.90;99.90;;;;;;4938522;29;20090;-85
2023/01/19 02:26:27;;;;;;;1999.90;740.58;;;10.10;99.90;;;;;;4937151;29;20086;-86
2023/01/19 02:28:59;;;;;;;1999.90;644.95;;;8.60;99.90;;;;;;4933053;28;20047;-86
2023/01/19 02:31:27;;;;;;;1999.90;828.03;;;9.90;99.90;;;;;;4949869;28;20054;-85
2023/01/19 02:33:53;;;;;;;;;;;8.60;99.90;;;;;;4951893;28;20047;-86
2023/01/19 02:36:24;;;;;;;1999.90;999.90;;;13.00;99.90;;;;;;4934385;29;20035;-84
2023/01/19 02:38:54;;;;;;;1725.40;228.43;;;10.50;99.90;;;;;;4943696;28;20047;-83
2023/01/19 02:41:27;;;;;;;1999.90;936.28;;;10.80;99.90;;;;;;4954841;29;20083;-81
2023/01/19 02:43:53;;;;;;;1999.90;999.90;;;;;;;;;;4954349;29;20051;-82
2023/01/19 02:46:19;;;;;;;1999.90;881.75;;;8.80;99.90;;;;;;4953363;28;20464;-82
2023/01/19 02:48:44;;;;;;;1999.90;910.22;;;11.70;99.90;;;;;;4952922;28;20126;-82
2023/01/19 02:51:22;;;;;;;1999.90;928.25;;;10.50;99.90;;;;;;4932356;29;20509;-81
2023/01/19 02:54:00;;;;;;;1999.90;409.95;;;9.00;99.90;;;;;;4945164;28;20452;-82
2023/01/19 02:57:00;;;;;;;1999.90;999.90;;;9.50;99.90;;;;;;4943710;28;20051;-81
2023/01/19 02:59:29;;;;;;;1999.90;854.58;;;8.80;99.90;;;;;;4945686;28;20058;-82
2023/01/19 03:02:22;;;;;;;1999.90;824.25;;;9.00;99.90;;;;;;4941902;28;20083;-82
2023/01/19 03:05:07;;;;;;;1999.90;443.60;;;9.60;99.90;;;;;;4951827;28;20440;-82
2023/01/19 03:07:57;;;;;;;1999.90;802.13;;;8.70;99.90;;;;;;4954563;28;20082;-82
2023/01/19 03:10:23;;;;;;;1999.90;999.90;;;9.60;99.90;;;;;;4953071;29;20047;-81
2023/01/19 03:13:05;;;;;;;1999.90;758.05;;;10.20;99.90;;;;;;4951570;28;20496;-81
2023/01/19 03:15:33;;;;;;;1999.90;757.88;;;10.40;99.90;;;;;;4936264;28;20059;-81
2023/01/19 03:18:00;;;;;;;1999.90;698.85;;;10.40;99.90;;;;;;4944626;28;20396;-82
2023/01/19 03:20:27;;;;;;;1999.90;999.90;;;9.80;99.90;;;;;;4952297;28;20100;-81
2023/01/19 03:23:01;;;;;;;1999.90;551.47;;;10.00;99.90;;;;;;4954617;28;20047;-81
2023/01/19 03:25:33;;;;;;;1999.90;905.97;;;10.30;99.90;;;;;;4948228;28;20055;-84
2023/01/19 03:28:00;;;;;;;1999.90;808.65;;;9.70;99.90;;;;;;4952627;28;20098;-82
2023/01/19 03:30:29;;;;;;;1999.90;701.78;;;10.00;99.90;;;;;;4948928;28;20118;-82
2023/01/19 03:33:06;;;;;;;1999.90;986.97;;;9.00;99.90;;;;;;4953007;28;20485;-81
2023/01/19 03:35:35;;;;;;;1999.90;999.90;;;9.50;99.90;;;;;;4952322;28;20066;-82
2023/01/19 03:38:07;;;;;;;1999.90;892.20;;;8.90;99.90;;;;;;4952940;29;20097;-82
2023/01/19 03:40:35;;;;;;;1999.90;550.03;;;11.80;99.90;;;;;;4951374;28;21492;-81
2023/01/19 03:43:01;;;;;;;;;;;9.20;99.90;;;;;;4968859;28;20066;-82
2023/01/19 03:45:29;;;;;;;1999.90;785.30;;;8.90;99.90;;;;;;4953622;28;19933;-81
2023/01/19 03:47:57;;;;;;;1999.90;903.78;;;8.30;99.90;;;;;;4940366;28;20183;-81
2023/01/19 03:50:29;;;;;;;1999.90;999.90;;;7.40;99.90;;;;;;4952757;28;20488;-83
2023/01/19 03:53:08;;;;;;;1999.90;763.85;;;9.90;99.90;;;;;;4950654;28;20059;-81
2023/01/19 03:55:36;;;;;;;1999.90;999.90;;;9.90;99.90;;;;;;4954640;28;20488;-80
2023/01/19 03:58:02;;;;;;;1999.90;680.95;;;9.70;99.90;;;;;;4956146;28;20563;-81
2023/01/19 04:00:28;;;;;;;1999.90;702.88;;;9.70;99.90;;;;;;4950253;28;20134;-81
2023/01/19 04:02:54;;;;;;;1999.90;948.70;;;10.30;99.90;;;;;;4953814;29;20054;-81
2023/01/19 04:05:21;;;;;;;1999.90;835.20;;;8.80;99.90;;;;;;4952638;28;20087;-85
2023/01/19 04:07:51;;;;;;;1999.90;832.15;;;11.30;99.90;;;;;;4952069;28;20195;-81
2023/01/19 04:10:17;;;;;;;1999.90;718.67;;;9.80;99.90;;;;;;4952146;28;20481;-81
2023/01/19 04:12:44;;;;;;;1999.90;999.90;;;8.30;99.90;;;;;;4953008;29;20395;-80
2023/01/19 04:15:10;;;;;;;1999.90;999.90;;;10.10;99.90;;;;;;4954513;29;20178;-82
2023/01/19 04:17:36;;;;;;;1999.90;999.90;;;10.70;99.90;;;;;;4936073;29;20055;-81
2023/01/19 04:20:01;;;;;;;1999.90;999.90;;;8.90;99.90;;;;;;4953945;29;20114;-80
2023/01/19 04:22:27;;;;;;;1999.90;540.47;;;8.00;99.90;;;;;;4944308;28;20078;-80
2023/01/19 04:24:54;;;;;;;1999.90;999.90;;;;;;;;;;4951878;28;20054;-81
2023/01/19 04:27:20;;;;;;;1999.90;951.53;;;10.50;99.90;;;;;;4947651;28;20059;-81
2023/01/19 04:29:46;;;;;;;1999.90;999.90;;;10.40;99.90;;;;;;4940163;28;20109;-81
2023/01/19 04:32:14;;;;;;;1999.90;999.90;;;11.10;99.90;;;;;;4949932;28;20047;-81
2023/01/19 04:34:40;;;;;;;1999.90;896.05;;;10.60;99.90;;;;;;4938266;28;20051;-80
2023/01/19 04:37:07;;;;;;;1999.90;999.90;;;9.40;99.90;;;;;;4953897;28;20114;-80
2023/01/19 04:39:33;;;;;;;1999.90;999.90;;;;;;;;;;4934193;28;20079;-81
2023/01/19 04:41:59;;;;;;;1999.90;999.90;;;10.30;99.90;;;;;;4935838;28;20852;-80
2023/01/19 04:44:26;;;;;;;1999.90;999.90;;;8.30;99.90;;;;;;4942763;29;20134;-80
2023/01/19 04:46:52;;;;;;;1999.90;977.42;;;;;;;;;;4934812;29;20131;-80
2023/01/19 04:49:18;;;;;;;1999.90;999.90;;;8.60;99.90;;;;;;4952136;28;20070;-83
2023/01/19 04:51:44;;;;;;;1999.90;996.50;;;10.40;99.90;;;;;;4953926;28;20503;-81
2023/01/19 04:54:10;;;;;;;1999.90;999.90;;;11.00;99.90;;;;;;4949391;28;20472;-81
2023/01/19 04:56:35;;;;;;;1999.90;999.90;;;11.30;99.90;;;;;;4953150;28;20081;-80
2023/01/19 04:59:01;;;;;;;1999.90;999.90;;;9.10;99.90;;;;;;4936926;29;20043;-80
2023/01/19 05:01:27;;;;;;;1999.90;999.90;;;9.30;99.90;;;;;;4941247;28;20039;-81
2023/01/19 05:03:52;;;;;;;1999.90;999.90;;;9.20;99.90;;;;;;4959932;28;20083;-81
2023/01/19 05:06:18;;;;;;;1999.90;999.90;;;10.90;99.90;;;;;;4950351;28;20054;-81
2023/01/19 05:08:44;;;;;;;1999.90;999.90;;;10.10;99.90;;;;;;4949037;28;20126;-86
2023/01/19 05:11:10;;;;;;;1999.90;999.90;;;9.40;99.90;;;;;;4947177;28;20098;-80
2023/01/19 05:13:36;;;;;;;1999.90;999.90;;;11.40;99.90;;;;;;4949529;29;20059;-81
2023/01/19 05:16:02;;;;;;;1999.90;999.90;;;9.10;99.90;;;;;;4943193;28;20043;-81
2023/01/19 05:18:28;;;;;;;1999.90;999.90;;;10.20;99.90;;;;;;4940604;28;20118;-81
2023/01/19 05:20:54;;;;;;;1999.90;999.90;;;9.70;99.90;;;;;;4941725;29;20472;-81
2023/01/19 05:23:20;;;;;;;1999.90;999.90;;;9.80;99.90;;;;;;4952001;28;20714;-82
2023/01/19 05:25:46;;;;;;;1999.90;999.90;;;9.10;99.90;;;;;;4949239;28;20131;-82
2023/01/19 05:28:12;;;;;;;1999.90;999.90;;;11.20;99.90;;;;;;4951071;29;20217;-82
2023/01/19 05:30:38;;;;;;;1999.90;999.90;;;;;;;;;;4950024;28;20051;-83
2023/01/19 05:33:04;;;;;;;1999.90;999.90;;;9.30;99.90;;;;;;4950573;28;20054;-84
2023/01/19 05:35:29;;;;;;;1999.90;999.90;;;10.50;99.90;;;;;;4942870;28;20047;-84
2023/01/19 05:37:55;;;;;;;1999.90;999.90;;;10.40;99.90;;;;;;4939836;29;20040;-84
2023/01/19 05:40:21;;;;;;;1999.90;999.90;;;;;;;;;;4948938;28;20550;-92
2023/01/19 05:42:47;;;;;;;1999.90;993.53;;;9.90;99.90;;;;;;4951706;29;20043;-89
2023/01/19 05:45:12;;;;;;;1999.90;999.90;;;10.10;99.90;;;;;;4950959;29;20055;-84
2023/01/19 05:47:38;;;;;;;1999.90;999.90;;;9.10;99.90;;;;;;4951762;29;20078;-83
2023/01/19 05:50:06;;;;;;;1999.90;999.90;;;9.10;99.90;;;;;;4953676;28;20062;-83
2023/01/19 05:52:33;;;;;;;1999.90;996.03;;;;;;;;;;4949224;28;20051;-84
2023/01/19 05:54:59;;;;;;;1999.90;999.90;;;;;;;;;;4953583;28;20047;-85
2023/01/19 05:57:25;;;;;;;1999.90;999.90;;;9.30;99.90;;;;;;4948465;28;20056;-85
2023/01/19 05:59:50;;;;;;;1999.90;999.90;;;9.70;99.90;;;;;;4937684;29;20060;-85
2023/01/19 06:02:16;;;;;;;1999.90;999.90;;;9.00;99.90;;;;;;4952445;28;20087;-85
2023/01/19 06:04:42;;;;;;;1999.90;999.90;;;12.30;99.90;;;;;;4944088;28;20055;-84
2023/01/19 06:07:07;;;;;;;1999.90;999.90;;;9.70;99.90;;;;;;4949604;28;20058;-84
2023/01/19 06:09:33;;;;;;;1999.90;999.90;;;9.30;99.90;;;;;;4953652;28;20528;-84
2023/01/19 06:11:59;;;;;;;1999.90;999.90;;;10.00;99.90;;;;;;4947426;28;20039;-84
2023/01/19 06:14:25;;;;;;;1999.90;999.90;;;10.20;99.90;;;;;;4953404;28;20469;-92
2023/01/19 06:16:52;;;;;;;1999.90;999.90;;;8.90;99.90;;;;;;4948760;28;20051;-85
2023/01/19 06:19:18;;;;;;;1999.90;999.90;;;9.70;99.90;;;;;;4953523;28;20054;-85
2023/01/19 06:21:48;;;;;;;1999.90;999.90;;;10.30;99.90;;;;;;4941078;29;20047;-84
2023/01/19 06:24:15;;;;;;;1999.90;999.90;;;11.60;99.90;;;;;;4938267;29;20051;-84
2023/01/19 06:26:42;;;;;;;1999.90;999.90;;;8.20;99.90;;;;;;4948247;28;20511;-85
2023/01/19 06:29:09;;;;;;;1999.90;999.90;;;8.70;99.90;;;;;;4949131;28;20118;-85
2023/01/19 06:31:35;;;;;;;1999.90;999.90;;;8.60;99.90;;;;;;4955025;29;20524;-85
2023/01/19 06:34:01;;;;;;;1999.90;999.90;;;8.30;99.90;;;;;;4951463;29;20063;-84
2023/01/19 06:36:26;;;;;;;1999.90;999.90;;;8.30;99.90;;;;;;4948968;28;20051;-86
2023/01/19 06:38:52;;;;;;;1999.90;999.90;;;10.70;99.90;;;;;;4960928;28;20051;-84
2023/01/19 06:41:18;;;;;;;1999.90;999.90;;;9.80;99.90;;;;;;4971107;28;20043;-85
2023/01/19 06:43:43;;;;;;;1999.90;999.90;;;8.10;99.90;;;;;;4968527;28;20488;-85
2023/01/19 06:46:09;;;;;;;1999.90;999.90;;;10.40;99.90;;;;;;4955085;29;20051;-84
2023/01/19 06:48:35;;;;;;;1999.90;999.90;;;10.00;99.90;;;;;;4953572;29;20058;-86
2023/01/19 06:51:00;;;;;;;1999.90;999.90;;;10.10;99.90;;;;;;4956522;28;20059;-86
2023/01/19 06:53:27;;;;;;;1999.90;999.90;;;10.10;99.90;;;;;;4952859;28;20051;-85
2023/01/19 06:56:00;;;;;;;1999.90;999.90;;;10.40;99.90;;;;;;4967938;28;20054;-86
2023/01/19 06:58:27;;;;;;;1999.90;999.90;;;8.80;99.90;;;;;;4957399;28;20302;-86
2023/01/19 07:00:53;;;;;;;1999.90;999.90;;;10.20;99.90;;;;;;4953584;28;20444;-86
2023/01/19 07:03:20;;;;;;;1999.90;999.90;;;9.50;99.90;;;;;;4954783;28;20137;-87
2023/01/19 07:05:49;;;;;;;1999.90;999.90;;;12.60;99.90;;;;;;4954525;28;20048;-86
2023/01/19 07:08:15;;;;;;;1999.90;999.90;;;8.70;99.90;;;;;;4952180;28;20074;-85
2023/01/19 07:10:40;;;;;;;1999.90;999.90;;;8.70;99.90;;;;;;4947046;29;20563;-87
2023/01/19 07:13:06;;;;;;;1999.90;999.90;;;10.00;99.90;;;;;;4953400;28;20047;-87
2023/01/19 07:15:32;;;;;;;1999.90;999.90;;;7.50;99.90;;;;;;4954823;29;20062;-88
2023/01/19 07:17:58;;;;;;;1999.90;999.90;;;10.00;99.90;;;;;;4940293;28;20052;-88
2023/01/19 07:20:24;;;;;;;1999.90;999.90;;;10.20;99.90;;;;;;4954864;28;20086;-87
2023/01/19 07:22:55;;;;;;;1999.90;999.90;;;9.00;99.90;;;;;;4950684;28;20500;-89
2023/01/19 07:25:21;;;;;;;1999.90;999.90;;;9.00;99.90;;;;;;4958993;28;20050;-87
2023/01/19 07:27:47;;;;;;;1999.90;999.90;;;8.80;99.90;;;;;;4954650;28;20056;-85
2023/01/19 07:30:14;;;;;;;1999.90;999.90;;;;;;;;;;4964664;28;20465;-90
2023/01/19 07:32:41;;;;;;;1999.90;999.90;;;12.00;99.90;;;;;;4946112;28;20463;-88
2023/01/19 07:35:08;;;;;;;1999.90;999.90;;;10.30;99.90;;;;;;4954027;29;20519;-89
2023/01/19 07:37:34;;;;;;;1999.90;999.90;;;9.20;99.90;;;;;;4950258;28;20142;-88
2023/01/19 07:40:00;;;;;;;1999.90;999.90;;;9.60;99.90;;;;;;4949638;28;20043;-88
2023/01/19 07:42:26;;;;;;;1999.90;999.90;;;10.00;99.90;;;;;;4955387;28;20397;-87
2023/01/19 07:44:51;;;;;;;1999.90;999.90;;;10.00;99.90;;;;;;4937283;29;20538;-88
2023/01/19 07:47:17;;;;;;;1999.90;999.90;;;9.70;99.90;;;;;;4950787;29;20051;-89
2023/01/19 07:49:43;;;;;;;1999.90;999.90;;;9.80;99.90;;;;;;4945558;28;20054;-89
2023/01/19 07:52:09;;;;;;;1999.90;999.90;;;9.10;99.90;;;;;;4955535;28;20063;-89
2023/01/19 07:54:35;;;;;;;1999.90;993.67;;;9.70;99.90;;;;;;4949589;28;20132;-90
2023/01/19 07:57:00;;;;;;;1999.90;999.90;;;7.10;99.90;;;;;;4949391;28;20136;-87
2023/01/19 07:59:29;;;;;;;1999.90;999.90;;;10.60;99.90;;;;;;4949928;28;20050;-89
2023/01/19 08:01:56;;;;;;;1999.90;999.90;;;9.30;99.90;;;;;;4952497;28;20130;-90
2023/01/19 08:04:22;;;;;;;1999.90;999.90;;;9.20;99.90;;;;;;4936271;29;20492;-89
2023/01/19 08:06:48;;;;;;;1999.90;999.90;;;11.40;99.90;;;;;;4951306;28;20051;-90
2023/01/19 08:09:14;;;;;;;1999.90;999.90;;;;;;;;;;4950070;29;20055;-89
2023/01/19 08:11:40;;;;;;;1999.90;999.90;;;9.80;99.90;;;;;;4952927;29;20047;-90
2023/01/19 08:14:06;;;;;;;1999.90;999.90;;;10.50;99.90;;;;;;4935183;29;20043;-89
2023/01/19 08:16:32;;;;;;;1999.90;999.90;;;9.60;99.90;;;;;;4951014;28;20051;-89
2023/01/19 08:18:57;;;;;;;1999.90;999.90;;;8.80;99.90;;;;;;4933959;29;20058;-89
2023/01/19 08:21:23;;;;;;;1999.90;999.90;;;10.10;99.90;;;;;;4957960;28;20044;-89
2023/01/19 08:23:53;;;;;;;1999.90;999.90;;;9.20;99.90;;;;;;4933672;29;20083;-89
2023/01/19 08:26:31;;;;;;;1999.90;999.90;;;9.00;99.90;;;;;;4934267;29;20050;-89
2023/01/19 08:28:59;;;;;;;1999.90;999.90;;;10.60;99.90;;;;;;4932443;29;20063;-89
2023/01/19 08:31:25;;;;;;;;;;;8.90;99.90;;;;;;4953416;29;20323;-89
2023/01/19 08:33:51;;;;;;;1999.90;999.90;;;9.80;99.90;;;;;;4953156;28;19978;-89
2023/01/19 08:36:17;;;;;;;1999.90;999.90;;;11.70;99.90;;;;;;4952966;28;20055;-88
2023/01/19 08:38:46;;;;;;;1999.90;999.90;;;7.60;99.90;;;;;;4951537;29;20054;-89
2023/01/19 08:41:14;;;;;;;1999.90;999.90;;;9.10;99.90;;;;;;4953038;28;20051;-89
2023/01/19 08:43:40;;;;;;;1999.90;999.90;;;9.40;99.90;;;;;;4934923;29;20055;-89
2023/01/19 08:46:06;;;;;;;1999.90;999.90;;;;;;;;;;4950359;28;20140;-90
2023/01/19 08:48:32;;;;;;;1999.90;999.90;;;;;;;;;;4949420;29;20200;-89
2023/01/19 08:50:59;;;;;;;1999.90;999.90;;;9.70;99.90;;;;;;4945702;28;21216;-89
2023/01/19 08:53:24;;;;;;;1999.90;999.90;;;9.40;99.90;;;;;;4952070;29;20051;-88
2023/01/19 08:56:00;;;;;;;1999.90;994.72;;;9.20;99.90;;;;;;4951810;28;20049;-88
2023/01/19 08:58:26;;;;;;;1999.90;999.90;;;;;;;;;;4952179;29;20640;-88
2023/01/19 09:00:52;;;;;;;1999.90;999.90;;;9.70;99.90;;;;;;4933222;29;20057;-88
2023/01/19 09:03:19;;;;;;;1999.90;999.90;;;10.60;99.90;;;;;;4953779;28;20051;-88
2023/01/19 09:05:46;;;;;;;1999.90;999.90;;;11.30;99.90;;;;;;4948079;29;20077;-88
2023/01/19 09:08:13;;;;;;;1999.90;999.90;;;10.20;99.90;;;;;;4951155;28;20484;-88
2023/01/19 09:10:44;;;;;;;1999.90;999.90;;;10.40;99.90;;;;;;4950608;28;20051;-88
2023/01/19 09:13:11;;;;;;;1999.90;999.90;;;9.40;99.90;;;;;;4953169;29;20451;-88
2023/01/19 09:15:38;;;;;;;1999.90;999.90;;;9.60;99.90;;;;;;4935895;28;20110;-87
2023/01/19 09:18:09;;;;;;;1999.90;999.90;;;10.50;99.90;;;;;;4951558;28;21740;-87
2023/01/19 09:20:37;;;;;;;1999.90;999.90;;;9.10;99.90;;;;;;4934779;29;20059;-87
2023/01/19 09:23:04;;;;;;;1999.90;999.90;;;9.20;99.90;;;;;;4964089;28;20056;-87
2023/01/19 09:25:30;;;;;;;1999.90;999.90;;;8.80;99.90;;;;;;4950173;28;20055;-87
2023/01/19 09:27:58;;;;;;;1999.90;999.90;;;7.70;99.90;;;;;;4953375;28;20051;-87
2023/01/19 09:30:23;;;;;;;1999.90;999.90;;;10.70;99.90;;;;;;4949569;29;20048;-87
2023/01/19 09:32:49;;;;;;;1999.90;999.90;;;10.20;99.90;;;;;;4947925;29;20401;-86
2023/01/19 09:35:15;;;;;;;1999.90;999.90;;;10.00;99.90;;;;;;4956531;29;20396;-87
2023/01/19 09:37:45;;;;;;;1999.90;999.90;;;9.70;99.90;;;;;;4954325;28;20415;-87
2023/01/19 09:40:11;;;;;;;1999.90;999.90;;;9.90;99.90;;;;;;4955725;29;20047;-87
2023/01/19 09:42:44;;;;;;;1999.90;999.90;;;10.00;99.90;;;;;;4955790;29;20043;-86
2023/01/19 09:45:18;;;;;;;1999.90;999.90;;;10.10;99.90;;;;;;4939927;29;20134;-86
2023/01/19 09:47:47;;;;;;;1999.90;999.90;;;11.40;99.90;;;;;;4953425;29;20378;-86
2023/01/19 09:50:26;;;;;;;1999.90;999.90;;;8.50;99.90;;;;;;4954370;28;20059;-86
2023/01/19 09:52:56;;;;;;;1999.90;999.90;;;9.80;99.90;;;;;;4956898;29;20400;-87
2023/01/19 09:55:25;;;;;;;1999.90;999.90;;;10.20;99.90;;;;;;4953740;29;20051;-87
2023/01/19 09:57:52;;;;;;;1999.90;999.90;;;10.90;99.90;;;;;;4955000;28;20059;-86
2023/01/19 10:00:18;;;;;;;1999.90;999.90;;;11.50;99.90;;;;;;4955422;28;20448;-85
2023/01/19 10:02:57;;;;;;;1999.90;999.90;;;10.60;99.90;;;;;;4958362;28;20473;-85
2023/01/19 10:05:22;;;;;;;1999.90;999.90;;;8.20;99.90;;;;;;4952881;28;20514;-86
2023/01/19 10:08:07;;;;;;;1999.90;999.90;;;9.30;99.90;;;;;;4955288;29;20134;-85
2023/01/19 10:10:35;;;;;;;1999.90;999.90;;;10.70;99.90;;;;;;4969884;28;20051;-86
2023/01/19 10:13:03;;;;;;;1999.90;999.90;;;9.50;99.90;;;;;;4960762;28;20130;-85
2023/01/19 10:15:49;;;;;;;1999.90;999.90;;;10.60;99.90;;;;;;4975232;28;20121;-86
2023/01/19 10:18:15;;;;;;;1999.90;999.90;;;;;;;;;;4931204;29;20055;-86
2023/01/19 10:20:50;;;;;;;1999.90;999.90;;;11.10;99.90;;;;;;4953412;29;20082;-85
2023/01/19 10:23:37;;;;;;;1999.90;981.03;;;10.80;99.90;;;;;;4954154;29;20039;-86
2023/01/19 10:26:24;;;;;;;1999.90;999.90;;;14.20;99.90;;;;;;4952877;29;20053;-85
2023/01/19 10:29:00;;;;;;;1999.90;999.90;;;12.60;99.90;;;;;;4951704;28;20059;-84
2023/01/19 10:31:26;;;;;;;1999.90;826.33;;;12.60;99.90;;;;;;4973375;28;20047;-85
2023/01/19 10:33:53;;;;;;;1999.90;468.77;;;10.80;99.90;;;;;;4951939;29;20047;-85
2023/01/19 10:36:34;;;;;;;1999.90;999.90;;;12.70;99.90;;;;;;4948931;28;20507;-84
2023/01/19 10:39:00;;;;;;;1999.90;877.33;;;14.40;99.90;;;;;;4955555;29;20043;-85
2023/01/19 10:41:43;;;;;;;1999.90;733.22;;;11.80;99.90;;;;;;4954316;28;20051;-84
2023/01/19 10:44:09;;;;;;;1999.90;918.97;;;11.60;99.90;;;;;;4955958;28;20596;-84
2023/01/19 10:46:44;;;;;;;1999.90;672.92;;;11.30;99.90;;;;;;4950255;28;20397;-86
2023/01/19 10:49:35;;;;;;;1999.90;999.90;;;10.00;99.90;;;;;;4955890;29;20412;-83
2023/01/19 10:52:02;;;;;;;1999.90;999.90;;;10.90;99.90;;;;;;4954275;28;20504;-84
2023/01/19 10:54:30;;;;;;;1999.90;999.90;;;11.00;99.90;;;;;;4955088;28;20086;-84
2023/01/19 10:56:56;;;;;;;;;;;11.50;99.90;;;;;;4953401;29;20054;-86
2023/01/19 10:59:34;;;;;;;1999.90;588.05;;;12.00;99.90;;;;;;4953296;28;19922;-84
2023/01/19 11:02:25;;;;;;;1999.90;999.90;;;11.10;99.90;;;;;;4955529;28;20040;-84
2023/01/19 11:04:52;;;;;;;1999.90;999.90;;;10.90;99.90;;;;;;4952315;29;20059;-86
2023/01/19 11:07:25;;;;;;;1999.90;999.90;;;12.50;99.90;;;;;;4955238;28;20059;-84
2023/01/19 11:10:20;;;;;;;1999.90;999.90;;;9.90;99.90;;;;;;4955198;29;20396;-84
2023/01/19 11:12:52;;;;;;;1999.90;999.90;;;11.60;99.90;;;;;;4949632;28;20647;-82
2023/01/19 11:15:27;;;;;;;1999.90;999.90;;;12.60;99.90;;;;;;4956463;28;20051;-83
2023/01/19 11:17:53;;;;;;;1999.90;999.90;;;12.20;99.90;;;;;;4951414;28;20043;-84
2023/01/19 11:20:25;;;;;;;1999.90;999.90;;;10.30;99.90;;;;;;4955178;29;20051;-83
2023/01/19 11:23:21;;;;;;;1999.90;999.90;;;10.30;99.90;;;;;;4952581;28;20043;-83
2023/01/19 11:25:52;;;;;;;1999.90;999.90;;;11.80;99.90;;;;;;4952619;28;20143;-83
2023/01/19 11:28:26;;;;;;;1999.90;999.90;;;10.60;99.90;;;;;;4948318;28;20051;-84
2023/01/19 11:31:01;;;;;;;1999.90;999.90;;;11.60;99.90;;;;;;4946129;29;20459;-82
2023/01/19 11:33:59;;;;;;;1999.90;976.90;;;10.40;99.90;;;;;;4953674;28;20054;-83
2023/01/19 11:36:34;;;;;;;1999.90;999.90;;;10.10;99.90;;;;;;4882638;28;20092;-83
2023/01/19 11:39:19;;;;;;;1465.50;328.55;;;11.10;99.90;;;;;;4939763;28;20054;-82
2023/01/19 11:41:50;;;;;;;1999.90;995.03;;;10.50;99.90;;;;;;4953903;28;20179;-82
2023/01/19 11:44:43;;;;;;;1999.90;999.90;;;11.80;99.90;;;;;;4953842;29;20051;-83
2023/01/19 11:47:41;;;;;;;1999.90;999.90;;;10.30;99.90;;;;;;4948685;29;20083;-82
2023/01/19 11:50:22;;;;;;;1999.90;999.90;;;11.60;99.90;;;;;;4948375;29;20053;-84
2023/01/19 11:53:00;;;;;;;1999.90;999.90;;;11.60;99.90;;;;;;4955035;28;20058;-82
2023/01/19 11:55:36;;;;;;;1999.90;999.90;;;11.70;99.90;;;;;;4954021;28;20077;-83
2023/01/19 11:58:04;;;;;;;1999.90;999.90;;;11.60;99.90;;;;;;4953358;29;20135;-83
2023/01/19 12:01:00;;;;;;;1999.90;999.90;;;10.50;99.90;;;;;;4954660;28;20122;-83
2023/01/19 12:03:52;;;;;;;1999.90;999.90;;;10.50;99.90;;;;;;4953544;28;20122;-82
2023/01/19 12:06:20;;;;;;;1999.90;999.90;;;10.40;99.90;;;;;;4913373;28;20062;-82
2023/01/19 12:08:54;;;;;;;1999.90;999.90;;;12.50;99.90;;;;;;4954218;28;20051;-82
2023/01/19 12:11:52;;;;;;;1999.90;999.90;;;11.40;99.90;;;;;;4953254;29;20081;-82
2023/01/19 12:14:36;;;;;;;1999.90;999.90;;;10.30;99.90;;;;;;4944337;28;20599;-82
2023/01/19 12:17:06;;;;;;;1999.90;999.90;;;11.40;99.90;;;;;;4952389;28;20083;-83
2023/01/19 12:19:58;;;;;;;1999.90;888.78;;;12.30;99.90;;;;;;4950777;28;20163;-83
2023/01/19 12:22:27;;;;;;;1999.90;999.90;;;10.10;99.90;;;;;;4953187;29;20039;-82
2023/01/19 12:25:03;;;;;;;1999.90;999.90;;;11.60;99.90;;;;;;4953314;28;20055;-82
2023/01/19 12:27:44;;;;;;;1999.90;999.90;;;10.50;99.90;;;;;;4952740;29;20051;-83
2023/01/19 12:30:24;;;;;;;1999.90;999.90;;;10.90;99.90;;;;;;4938688;29;20047;-83
2023/01/19 12:32:50;;;;;;;1814.15;813.10;;;11.60;99.90;;;;;;4954376;29;20047;-83